Terminal Aerodrome Forecast
Issued by NWS Wichita, KS

Home | Current Version | Previous Version | Graphics & Text | Print | Product List | Glossary On
Versions: 1 2 3 4 5 6 7 8 9 10 11 12
000
FTUS43 KICT 151124
TAFICT
TAF
KICT 151124Z 1512/1612 22014G20KT P6SM BKN200
     FM151800 26012KT P6SM BKN200
     FM152100 31012KT P6SM BKN200
     FM160000 01020G29KT P6SM BKN100=

USA.gov is the U.S. government's official web portal to all federal, state and local government web resources and services.